sensor_id;sensor_type;location;lat;lon;timestamp;pressure;altitude;pressure_sealevel;temperature;humidity
49044;BME280;34860;48.066;14.124;2023-03-19T00:00:00;96330.13;;;10.22;64.11
49044;BME280;34860;48.066;14.124;2023-03-19T00:02:53;96329.91;;;10.16;64.14
49044;BME280;34860;48.066;14.124;2023-03-19T00:05:49;96330.44;;;10.11;64.01
49044;BME280;34860;48.066;14.124;2023-03-19T00:08:40;96325.56;;;10.03;64.04
49044;BME280;34860;48.066;14.124;2023-03-19T00:11:29;96329.31;;;9.96;64.00
49044;BME280;34860;48.066;14.124;2023-03-19T00:14:18;96329.06;;;9.90;64.07
49044;BME280;34860;48.066;14.124;2023-03-19T00:17:06;96318.63;;;9.81;63.92
49044;BME280;34860;48.066;14.124;2023-03-19T00:19:58;96319.63;;;9.75;64.01
49044;BME280;34860;48.066;14.124;2023-03-19T00:22:49;96324.47;;;9.71;63.98
49044;BME280;34860;48.066;14.124;2023-03-19T00:25:37;96329.00;;;9.64;63.97
49044;BME280;34860;48.066;14.124;2023-03-19T00:28:25;96334.66;;;9.61;63.96
49044;BME280;34860;48.066;14.124;2023-03-19T00:31:15;96318.63;;;9.52;63.93
49044;BME280;34860;48.066;14.124;2023-03-19T00:34:04;96329.19;;;9.44;64.04
49044;BME280;34860;48.066;14.124;2023-03-19T00:36:55;96330.91;;;9.38;64.07
49044;BME280;34860;48.066;14.124;2023-03-19T00:39:43;96331.88;;;9.32;64.00
49044;BME280;34860;48.066;14.124;2023-03-19T00:42:37;96332.84;;;9.25;64.10
49044;BME280;34860;48.066;14.124;2023-03-19T00:45:25;96322.28;;;9.20;64.11
49044;BME280;34860;48.066;14.124;2023-03-19T00:48:17;96319.72;;;9.13;63.97
49044;BME280;34860;48.066;14.124;2023-03-19T00:51:07;96321.78;;;9.08;63.97
49044;BME280;34860;48.066;14.124;2023-03-19T00:54:00;96323.84;;;9.04;63.95
49044;BME280;34860;48.066;14.124;2023-03-19T00:56:48;96323.19;;;9.00;63.85
49044;BME280;34860;48.066;14.124;2023-03-19T00:59:37;96318.50;;;8.97;63.89
49044;BME280;34860;48.066;14.124;2023-03-19T01:02:25;96320.16;;;8.95;64.02
49044;BME280;34860;48.066;14.124;2023-03-19T01:05:17;96309.94;;;8.91;63.92
49044;BME280;34860;48.066;14.124;2023-03-19T01:08:05;96306.50;;;8.87;63.83
49044;BME280;34860;48.066;14.124;2023-03-19T01:10:56;96314.88;;;8.84;63.73
49044;BME280;34860;48.066;14.124;2023-03-19T01:13:44;96306.66;;;8.80;63.79
49044;BME280;34860;48.066;14.124;2023-03-19T01:16:34;96307.94;;;8.76;63.75
49044;BME280;34860;48.066;14.124;2023-03-19T01:19:24;96304.50;;;8.71;63.86
49044;BME280;34860;48.066;14.124;2023-03-19T01:22:16;96305.81;;;8.67;63.89
49044;BME280;34860;48.066;14.124;2023-03-19T01:25:12;96311.44;;;8.63;63.83
49044;BME280;34860;48.066;14.124;2023-03-19T01:28:13;96323.38;;;8.60;63.68
49044;BME280;34860;48.066;14.124;2023-03-19T01:31:05;96330.22;;;8.56;63.81
49044;BME280;34860;48.066;14.124;2023-03-19T01:34:16;96330.75;;;8.50;63.80
49044;BME280;34860;48.066;14.124;2023-03-19T01:37:10;96326.06;;;8.47;63.87
49044;BME280;34860;48.066;14.124;2023-03-19T01:40:03;96320.22;;;8.42;63.84
49044;BME280;34860;48.066;14.124;2023-03-19T01:42:53;96329.38;;;8.39;63.94
49044;BME280;34860;48.066;14.124;2023-03-19T01:46:07;96335.00;;;8.35;63.79
49044;BME280;34860;48.066;14.124;2023-03-19T01:49:12;96332.75;;;8.30;63.82
49044;BME280;34860;48.066;14.124;2023-03-19T01:52:09;96323.75;;;8.26;63.72
49044;BME280;34860;48.066;14.124;2023-03-19T01:55:23;96336.09;;;8.21;63.87
49044;BME280;34860;48.066;14.124;2023-03-19T01:58:28;96333.06;;;8.15;63.84
49044;BME280;34860;48.066;14.124;2023-03-19T02:02:00;96323.28;;;8.11;63.91
49044;BME280;34860;48.066;14.124;2023-03-19T02:04:53;96321.81;;;8.06;63.98
49044;BME280;34860;48.066;14.124;2023-03-19T02:07:43;96330.97;;;8.03;64.01
49044;BME280;34860;48.066;14.124;2023-03-19T02:10:34;96325.50;;;7.99;63.90
49044;BME280;34860;48.066;14.124;2023-03-19T02:13:23;96319.25;;;7.95;63.94
49044;BME280;34860;48.066;14.124;2023-03-19T02:16:14;96313.00;;;7.91;63.96
49044;BME280;34860;48.066;14.124;2023-03-19T02:19:05;96318.19;;;7.89;63.83
49044;BME280;34860;48.066;14.124;2023-03-19T02:21:58;96330.13;;;7.86;63.85
49044;BME280;34860;48.066;14.124;2023-03-19T02:24:50;96322.66;;;7.83;63.89
49044;BME280;34860;48.066;14.124;2023-03-19T02:27:44;96337.34;;;7.80;64.02
49044;BME280;34860;48.066;14.124;2023-03-19T02:30:33;96331.91;;;7.76;63.80
49044;BME280;34860;48.066;14.124;2023-03-19T02:33:26;96332.34;;;7.75;63.87
49044;BME280;34860;48.066;14.124;2023-03-19T02:36:18;96333.97;;;7.72;63.82
49044;BME280;34860;48.066;14.124;2023-03-19T02:39:13;96332.84;;;7.70;63.84
49044;BME280;34860;48.066;14.124;2023-03-19T02:42:07;96335.19;;;7.71;63.67
49044;BME280;34860;48.066;14.124;2023-03-19T02:44:58;96335.69;;;7.66;63.83
49044;BME280;34860;48.066;14.124;2023-03-19T02:47:48;96328.59;;;7.65;63.73
49044;BME280;34860;48.066;14.124;2023-03-19T02:50:39;96332.97;;;7.62;63.85
49044;BME280;34860;48.066;14.124;2023-03-19T02:53:31;96334.19;;;7.61;63.74
49044;BME280;34860;48.066;14.124;2023-03-19T02:56:20;96337.38;;;7.60;63.79
49044;BME280;34860;48.066;14.124;2023-03-19T02:59:10;96333.47;;;7.57;63.90
49044;BME280;34860;48.066;14.124;2023-03-19T03:02:02;96337.09;;;7.54;63.77
49044;BME280;34860;48.066;14.124;2023-03-19T03:04:51;96336.72;;;7.52;63.67
49044;BME280;34860;48.066;14.124;2023-03-19T03:07:40;96332.81;;;7.50;63.74
49044;BME280;34860;48.066;14.124;2023-03-19T03:10:31;96335.25;;;7.48;63.76
49044;BME280;34860;48.066;14.124;2023-03-19T03:13:22;96336.84;;;7.45;63.72
49044;BME280;34860;48.066;14.124;2023-03-19T03:16:11;96342.03;;;7.43;63.74
49044;BME280;34860;48.066;14.124;2023-03-19T03:19:03;96349.63;;;7.39;63.78
49044;BME280;34860;48.066;14.124;2023-03-19T03:21:52;96356.78;;;7.36;63.90
49044;BME280;34860;48.066;14.124;2023-03-19T03:24:40;96366.69;;;7.34;63.92
49044;BME280;34860;48.066;14.124;2023-03-19T03:27:30;96358.47;;;7.30;63.96
49044;BME280;34860;48.066;14.124;2023-03-19T03:30:20;96357.34;;;7.27;63.89
49044;BME280;34860;48.066;14.124;2023-03-19T03:33:10;96366.47;;;7.24;63.89
49044;BME280;34860;48.066;14.124;2023-03-19T03:36:00;96366.09;;;7.22;63.87
49044;BME280;34860;48.066;14.124;2023-03-19T03:38:48;96360.66;;;7.19;63.96
49044;BME280;34860;48.066;14.124;2023-03-19T03:41:38;96371.34;;;7.17;63.88
49044;BME280;34860;48.066;14.124;2023-03-19T03:44:29;96361.91;;;7.14;63.81
49044;BME280;34860;48.066;14.124;2023-03-19T03:47:18;96355.69;;;7.10;63.95
49044;BME280;34860;48.066;14.124;2023-03-19T03:50:09;96357.28;;;7.07;63.88
49044;BME280;34860;48.066;14.124;2023-03-19T03:53:00;96352.63;;;7.04;63.95
49044;BME280;34860;48.066;14.124;2023-03-19T03:55:50;96354.22;;;7.02;64.01
49044;BME280;34860;48.066;14.124;2023-03-19T03:58:41;96353.09;;;6.99;64.03
49044;BME280;34860;48.066;14.124;2023-03-19T04:01:31;96349.19;;;6.97;63.91
49044;BME280;34860;48.066;14.124;2023-03-19T04:04:19;96352.78;;;6.94;63.92
49044;BME280;34860;48.066;14.124;2023-03-19T04:07:08;96356.78;;;6.93;63.93
49044;BME280;34860;48.066;14.124;2023-03-19T04:10:02;96355.63;;;6.90;63.96
49044;BME280;34860;48.066;14.124;2023-03-19T04:12:51;96360.78;;;6.88;64.02
49044;BME280;34860;48.066;14.124;2023-03-19T04:15:43;96361.63;;;6.85;63.97
49044;BME280;34860;48.066;14.124;2023-03-19T04:18:33;96362.47;;;6.82;64.02
49044;BME280;34860;48.066;14.124;2023-03-19T04:21:24;96375.94;;;6.80;63.99
49044;BME280;34860;48.066;14.124;2023-03-19T04:24:16;96363.72;;;6.77;64.05
49044;BME280;34860;48.066;14.124;2023-03-19T04:27:07;96353.88;;;6.76;64.02
49044;BME280;34860;48.066;14.124;2023-03-19T04:29:57;96350.75;;;6.74;64.01
49044;BME280;34860;48.066;14.124;2023-03-19T04:32:46;96356.34;;;6.70;64.10
49044;BME280;34860;48.066;14.124;2023-03-19T04:35:34;96381.97;;;6.71;63.97
49044;BME280;34860;48.066;14.124;2023-03-19T04:38:26;96380.03;;;6.68;64.06
49044;BME280;34860;48.066;14.124;2023-03-19T04:41:15;96376.91;;;6.66;63.99
49044;BME280;34860;48.066;14.124;2023-03-19T04:44:19;96373.81;;;6.64;64.09
49044;BME280;34860;48.066;14.124;2023-03-19T04:47:10;96372.22;;;6.63;64.06
49044;BME280;34860;48.066;14.124;2023-03-19T04:50:09;96371.88;;;6.61;64.07
49044;BME280;34860;48.066;14.124;2023-03-19T04:53:00;96393.16;;;6.60;64.01
49044;BME280;34860;48.066;14.124;2023-03-19T04:55:49;96389.63;;;6.60;64.01
49044;BME280;34860;48.066;14.124;2023-03-19T04:58:39;96397.16;;;6.59;64.08
49044;BME280;34860;48.066;14.124;2023-03-19T05:01:29;96400.69;;;6.60;63.99
49044;BME280;34860;48.066;14.124;2023-03-19T05:04:27;96404.63;;;6.59;63.94
49044;BME280;34860;48.066;14.124;2023-03-19T05:07:20;96392.81;;;6.58;64.06
49044;BME280;34860;48.066;14.124;2023-03-19T05:10:11;96397.16;;;6.59;63.92
49044;BME280;34860;48.066;14.124;2023-03-19T05:13:00;96393.97;;;6.61;63.84
49044;BME280;34860;48.066;14.124;2023-03-19T05:15:52;96380.94;;;6.61;63.89
49044;BME280;34860;48.066;14.124;2023-03-19T05:18:43;96385.25;;;6.62;63.90
49044;BME280;34860;48.066;14.124;2023-03-19T05:21:32;96386.81;;;6.63;63.77
49044;BME280;34860;48.066;14.124;2023-03-19T05:24:23;96393.91;;;6.64;63.84
49044;BME280;34860;48.066;14.124;2023-03-19T05:27:13;96397.44;;;6.65;64.02
49044;BME280;34860;48.066;14.124;2023-03-19T05:30:22;96404.19;;;6.64;63.79
49044;BME280;34860;48.066;14.124;2023-03-19T05:33:21;96404.19;;;6.64;63.78
49044;BME280;34860;48.066;14.124;2023-03-19T05:36:13;96403.78;;;6.62;63.97
49044;BME280;34860;48.066;14.124;2023-03-19T05:39:12;96412.13;;;6.58;64.04
49044;BME280;34860;48.066;14.124;2023-03-19T05:42:03;96423.19;;;6.58;63.97
49044;BME280;34860;48.066;14.124;2023-03-19T05:44:52;96420.00;;;6.60;64.01
49044;BME280;34860;48.066;14.124;2023-03-19T05:47:46;96418.41;;;6.62;63.86
49044;BME280;34860;48.066;14.124;2023-03-19T05:50:35;96425.47;;;6.63;63.98
49044;BME280;34860;48.066;14.124;2023-03-19T05:53:40;96431.78;;;6.64;64.03
49044;BME280;34860;48.066;14.124;2023-03-19T05:56:52;96445.22;;;6.62;64.02
49044;BME280;34860;48.066;14.124;2023-03-19T06:00:01;96445.63;;;6.60;64.06
49044;BME280;34860;48.066;14.124;2023-03-19T06:03:00;96445.59;;;6.64;64.02
49044;BME280;34860;48.066;14.124;2023-03-19T06:06:04;96457.81;;;6.63;64.06
49044;BME280;34860;48.066;14.124;2023-03-19T06:09:01;96458.59;;;6.63;63.91
49044;BME280;34860;48.066;14.124;2023-03-19T06:11:56;96474.41;;;6.63;64.12
49044;BME280;34860;48.066;14.124;2023-03-19T06:15:11;96471.22;;;6.64;63.97
49044;BME280;34860;48.066;14.124;2023-03-19T06:18:34;96473.94;;;6.68;63.99
49044;BME280;34860;48.066;14.124;2023-03-19T06:21:29;96483.72;;;6.72;64.07
49044;BME280;34860;48.066;14.124;2023-03-19T06:24:24;96486.00;;;6.78;63.81
49044;BME280;34860;48.066;14.124;2023-03-19T06:27:12;96479.66;;;6.81;63.83
49044;BME280;34860;48.066;14.124;2023-03-19T06:30:02;96484.69;;;6.89;63.83
49044;BME280;34860;48.066;14.124;2023-03-19T06:32:52;96483.44;;;6.94;63.63
49044;BME280;34860;48.066;14.124;2023-03-19T06:35:43;96497.53;;;7.00;63.72
49044;BME280;34860;48.066;14.124;2023-03-19T06:38:31;96502.19;;;7.06;63.65
49044;BME280;34860;48.066;14.124;2023-03-19T06:41:21;96507.19;;;7.15;63.69
49044;BME280;34860;48.066;14.124;2023-03-19T06:44:12;96517.34;;;7.22;63.58
49044;BME280;34860;48.066;14.124;2023-03-19T06:47:01;96513.28;;;7.30;63.56
49044;BME280;34860;48.066;14.124;2023-03-19T06:49:52;96505.28;;;7.36;63.66
49044;BME280;34860;48.066;14.124;2023-03-19T06:52:40;96503.97;;;7.44;63.37
49044;BME280;34860;48.066;14.124;2023-03-19T06:55:29;96491.16;;;7.54;63.46
49044;BME280;34860;48.066;14.124;2023-03-19T06:58:20;96489.41;;;7.63;63.42
49044;BME280;34860;48.066;14.124;2023-03-19T07:01:08;96497.19;;;7.72;63.52
49044;BME280;34860;48.066;14.124;2023-03-19T07:03:57;96511.22;;;7.81;63.42
49044;BME280;34860;48.066;14.124;2023-03-19T07:06:47;96523.69;;;7.93;63.53
49044;BME280;34860;48.066;14.124;2023-03-19T07:09:36;96526.31;;;8.00;63.34
49044;BME280;34860;48.066;14.124;2023-03-19T07:12:25;96514.69;;;8.09;63.21
49044;BME280;34860;48.066;14.124;2023-03-19T07:15:16;96518.09;;;8.17;63.27
49044;BME280;34860;48.066;14.124;2023-03-19T07:18:06;96523.91;;;8.23;63.17
49044;BME280;34860;48.066;14.124;2023-03-19T07:20:55;96522.22;;;8.29;63.29
49044;BME280;34860;48.066;14.124;2023-03-19T07:23:45;96519.31;;;8.36;63.08
49044;BME280;34860;48.066;14.124;2023-03-19T07:26:34;96527.50;;;8.43;63.27
49044;BME280;34860;48.066;14.124;2023-03-19T07:29:22;96534.03;;;8.53;63.25
49044;BME280;34860;48.066;14.124;2023-03-19T07:32:14;96528.78;;;8.59;63.33
49044;BME280;34860;48.066;14.124;2023-03-19T07:35:06;96532.53;;;8.68;63.18
49044;BME280;34860;48.066;14.124;2023-03-19T07:37:55;96533.53;;;8.78;63.14
49044;BME280;34860;48.066;14.124;2023-03-19T07:40:48;96532.50;;;8.88;63.23
49044;BME280;34860;48.066;14.124;2023-03-19T07:43:47;96537.81;;;8.99;62.97
49044;BME280;34860;48.066;14.124;2023-03-19T07:46:40;96533.25;;;9.09;63.10
49044;BME280;34860;48.066;14.124;2023-03-19T07:49:30;96538.56;;;9.20;63.02
49044;BME280;34860;48.066;14.124;2023-03-19T07:52:18;96551.38;;;9.30;62.92
49044;BME280;34860;48.066;14.124;2023-03-19T07:55:08;96548.03;;;9.39;62.99
49044;BME280;34860;48.066;14.124;2023-03-19T07:57:58;96552.09;;;9.51;62.89
49044;BME280;34860;48.066;14.124;2023-03-19T08:00:47;96538.50;;;9.56;62.91
49044;BME280;34860;48.066;14.124;2023-03-19T08:03:36;96538.31;;;9.63;62.82
49044;BME280;34860;48.066;14.124;2023-03-19T08:06:30;96539.78;;;9.68;62.91
49044;BME280;34860;48.066;14.124;2023-03-19T08:09:20;96541.63;;;9.75;62.90
49044;BME280;34860;48.066;14.124;2023-03-19T08:12:09;96543.34;;;9.85;62.85
49044;BME280;34860;48.066;14.124;2023-03-19T08:14:57;96555.47;;;9.91;62.87
49044;BME280;34860;48.066;14.124;2023-03-19T08:17:46;96554.50;;;9.98;62.91
49044;BME280;34860;48.066;14.124;2023-03-19T08:20:34;96558.75;;;10.03;62.92
49044;BME280;34860;48.066;14.124;2023-03-19T08:23:28;96564.97;;;10.07;62.90
49044;BME280;34860;48.066;14.124;2023-03-19T08:26:16;96560.56;;;10.09;62.93
49044;BME280;34860;48.066;14.124;2023-03-19T08:29:04;96560.84;;;10.15;62.98
49044;BME280;34860;48.066;14.124;2023-03-19T08:31:53;96560.28;;;10.20;62.89
49044;BME280;34860;48.066;14.124;2023-03-19T08:34:41;96567.66;;;10.27;62.77
49044;BME280;34860;48.066;14.124;2023-03-19T08:37:29;96567.84;;;10.36;62.97
49044;BME280;34860;48.066;14.124;2023-03-19T08:40:21;96567.31;;;10.41;62.79
49044;BME280;34860;48.066;14.124;2023-03-19T08:43:11;96569.09;;;10.48;62.84
49044;BME280;34860;48.066;14.124;2023-03-19T08:46:00;96560.56;;;10.55;62.66
49044;BME280;34860;48.066;14.124;2023-03-19T08:48:49;96560.72;;;10.64;62.67
49044;BME280;34860;48.066;14.124;2023-03-19T08:51:39;96565.31;;;10.71;62.65
49044;BME280;34860;48.066;14.124;2023-03-19T08:54:27;96575.31;;;10.81;62.71
49044;BME280;34860;48.066;14.124;2023-03-19T08:57:17;96577.91;;;10.88;62.72
49044;BME280;34860;48.066;14.124;2023-03-19T09:00:08;96587.59;;;10.97;62.68
49044;BME280;34860;48.066;14.124;2023-03-19T09:02:56;96588.19;;;11.04;62.57
49044;BME280;34860;48.066;14.124;2023-03-19T09:05:45;96586.75;;;11.13;62.54
49044;BME280;34860;48.066;14.124;2023-03-19T09:08:35;96582.06;;;11.22;62.70
49044;BME280;34860;48.066;14.124;2023-03-19T09:11:24;96587.78;;;11.32;62.54
49044;BME280;34860;48.066;14.124;2023-03-19T09:14:14;96590.66;;;11.41;62.43
49044;BME280;34860;48.066;14.124;2023-03-19T09:17:06;96581.19;;;11.51;62.39
49044;BME280;34860;48.066;14.124;2023-03-19T09:19:56;96578.53;;;11.60;62.40
49044;BME280;34860;48.066;14.124;2023-03-19T09:22:44;96587.00;;;11.70;62.32
49044;BME280;34860;48.066;14.124;2023-03-19T09:25:34;96579.97;;;11.78;62.32
49044;BME280;34860;48.066;14.124;2023-03-19T09:28:24;96586.72;;;11.90;62.35
49044;BME280;34860;48.066;14.124;2023-03-19T09:31:15;96581.75;;;11.97;62.34
49044;BME280;34860;48.066;14.124;2023-03-19T09:34:11;96582.75;;;12.04;62.29
49044;BME280;34860;48.066;14.124;2023-03-19T09:36:59;96578.81;;;12.14;62.09
49044;BME280;34860;48.066;14.124;2023-03-19T09:39:48;96575.66;;;12.25;62.17
49044;BME280;34860;48.066;14.124;2023-03-19T09:42:48;96574.53;;;12.35;62.04
49044;BME280;34860;48.066;14.124;2023-03-19T09:45:41;96581.28;;;12.47;62.01
49044;BME280;34860;48.066;14.124;2023-03-19T09:48:34;96571.75;;;12.57;62.09
49044;BME280;34860;48.066;14.124;2023-03-19T09:51:29;96562.81;;;12.62;61.89
49044;BME280;34860;48.066;14.124;2023-03-19T09:54:29;96575.59;;;12.72;62.02
49044;BME280;34860;48.066;14.124;2023-03-19T09:57:18;96575.78;;;12.78;62.09
49044;BME280;34860;48.066;14.124;2023-03-19T10:00:19;96580.63;;;12.87;61.99
49044;BME280;34860;48.066;14.124;2023-03-19T10:03:23;96574.34;;;12.96;62.00
49044;BME280;34860;48.066;14.124;2023-03-19T10:06:24;96581.84;;;13.08;61.96
49044;BME280;34860;48.066;14.124;2023-03-19T10:09:27;96571.50;;;13.18;61.87
49044;BME280;34860;48.066;14.124;2023-03-19T10:12:25;96579.50;;;13.29;61.81
49044;BME280;34860;48.066;14.124;2023-03-19T10:15:20;96576.47;;;13.36;61.77
49044;BME280;34860;48.066;14.124;2023-03-19T10:18:16;96580.84;;;13.46;61.67
49044;BME280;34860;48.066;14.124;2023-03-19T10:21:09;96584.91;;;13.54;61.74
49044;BME280;34860;48.066;14.124;2023-03-19T10:24:02;96575.81;;;13.63;61.85
49044;BME280;34860;48.066;14.124;2023-03-19T10:26:57;96581.75;;;13.74;61.74
49044;BME280;34860;48.066;14.124;2023-03-19T10:29:48;96578.19;;;13.83;61.56
49044;BME280;34860;48.066;14.124;2023-03-19T10:32:40;96571.84;;;13.92;61.62
49044;BME280;34860;48.066;14.124;2023-03-19T10:35:36;96565.84;;;14.03;61.64
49044;BME280;34860;48.066;14.124;2023-03-19T10:38:27;96567.38;;;14.13;61.75
49044;BME280;34860;48.066;14.124;2023-03-19T10:41:28;96576.09;;;14.24;61.66
49044;BME280;34860;48.066;14.124;2023-03-19T10:44:27;96575.66;;;14.35;61.39
49044;BME280;34860;48.066;14.124;2023-03-19T10:47:17;96565.41;;;14.41;61.40
49044;BME280;34860;48.066;14.124;2023-03-19T10:50:13;96566.94;;;14.51;61.47
49044;BME280;34860;48.066;14.124;2023-03-19T10:53:06;96568.84;;;14.64;61.25
49044;BME280;34860;48.066;14.124;2023-03-19T10:55:58;96578.00;;;14.74;61.30
49044;BME280;34860;48.066;14.124;2023-03-19T10:59:02;96580.34;;;14.84;61.24
49044;BME280;34860;48.066;14.124;2023-03-19T11:01:56;96580.63;;;14.96;61.21
49044;BME280;34860;48.066;14.124;2023-03-19T11:04:44;96588.56;;;15.06;61.22
49044;BME280;34860;48.066;14.124;2023-03-19T11:07:35;96573.28;;;15.17;61.07
49044;BME280;34860;48.066;14.124;2023-03-19T11:10:26;96577.16;;;15.29;60.99
49044;BME280;34860;48.066;14.124;2023-03-19T11:13:22;96575.88;;;15.39;61.13
49044;BME280;34860;48.066;14.124;2023-03-19T11:16:13;96574.28;;;15.47;61.08
49044;BME280;34860;48.066;14.124;2023-03-19T11:19:01;96571.00;;;15.49;61.00
49044;BME280;34860;48.066;14.124;2023-03-19T11:21:59;96570.84;;;15.52;61.12
49044;BME280;34860;48.066;14.124;2023-03-19T11:24:51;96562.75;;;15.54;61.24
49044;BME280;34860;48.066;14.124;2023-03-19T11:27:40;96563.34;;;15.58;61.14
49044;BME280;34860;48.066;14.124;2023-03-19T11:30:37;96563.97;;;15.62;61.20
49044;BME280;34860;48.066;14.124;2023-03-19T11:33:47;96553.34;;;15.67;61.15
49044;BME280;34860;48.066;14.124;2023-03-19T11:36:45;96553.97;;;15.71;60.99
49044;BME280;34860;48.066;14.124;2023-03-19T11:39:47;96542.09;;;15.76;61.22
49044;BME280;34860;48.066;14.124;2023-03-19T11:42:50;96537.13;;;15.80;61.05
49044;BME280;34860;48.066;14.124;2023-03-19T11:45:58;96534.91;;;15.84;61.00
49044;BME280;34860;48.066;14.124;2023-03-19T11:49:14;96533.19;;;15.87;61.06
49044;BME280;34860;48.066;14.124;2023-03-19T11:52:12;96533.03;;;15.90;60.96
49044;BME280;34860;48.066;14.124;2023-03-19T11:55:13;96537.69;;;15.93;60.98
49044;BME280;34860;48.066;14.124;2023-03-19T11:58:20;96532.06;;;15.93;60.98
49044;BME280;34860;48.066;14.124;2023-03-19T12:01:16;96527.72;;;15.92;61.12
49044;BME280;34860;48.066;14.124;2023-03-19T12:04:29;96526.75;;;15.95;60.87
49044;BME280;34860;48.066;14.124;2023-03-19T12:07:26;96512.09;;;16.01;60.78
49044;BME280;34860;48.066;14.124;2023-03-19T12:10:27;96517.66;;;16.10;61.04
49044;BME280;34860;48.066;14.124;2023-03-19T12:13:27;96520.84;;;16.17;60.78
49044;BME280;34860;48.066;14.124;2023-03-19T12:16:23;96517.22;;;16.26;60.87
49044;BME280;34860;48.066;14.124;2023-03-19T12:19:32;96517.44;;;16.38;60.58
49044;BME280;34860;48.066;14.124;2023-03-19T12:22:41;96517.38;;;16.47;60.86
49044;BME280;34860;48.066;14.124;2023-03-19T12:25:44;96520.25;;;16.52;60.62
49044;BME280;34860;48.066;14.124;2023-03-19T12:28:40;96520.19;;;16.62;60.51
49044;BME280;34860;48.066;14.124;2023-03-19T12:31:39;96526.59;;;16.77;60.49
49044;BME280;34860;48.066;14.124;2023-03-19T12:34:37;96516.66;;;16.91;60.48
49044;BME280;34860;48.066;14.124;2023-03-19T12:37:32;96516.38;;;17.04;60.28
49044;BME280;34860;48.066;14.124;2023-03-19T12:40:27;96511.13;;;17.12;60.28
49044;BME280;34860;48.066;14.124;2023-03-19T12:43:24;96512.41;;;17.25;60.22
49044;BME280;34860;48.066;14.124;2023-03-19T12:46:18;96507.72;;;17.37;60.07
49044;BME280;34860;48.066;14.124;2023-03-19T12:49:15;96512.84;;;17.54;60.02
49044;BME280;34860;48.066;14.124;2023-03-19T12:52:12;96509.50;;;17.70;59.82
49044;BME280;34860;48.066;14.124;2023-03-19T12:55:12;96516.63;;;17.86;59.76
49044;BME280;34860;48.066;14.124;2023-03-19T12:58:06;96500.50;;;18.02;59.71
49044;BME280;34860;48.066;14.124;2023-03-19T13:01:00;96499.38;;;18.14;59.56
49044;BME280;34860;48.066;14.124;2023-03-19T13:03:55;96502.88;;;18.29;59.37
49044;BME280;34860;48.066;14.124;2023-03-19T13:06:49;96496.91;;;18.42;59.55
49044;BME280;34860;48.066;14.124;2023-03-19T13:09:43;96494.69;;;18.52;59.44
49044;BME280;34860;48.066;14.124;2023-03-19T13:12:35;96489.19;;;18.63;59.45
49044;BME280;34860;48.066;14.124;2023-03-19T13:15:28;96479.31;;;18.74;59.48
49044;BME280;34860;48.066;14.124;2023-03-19T13:18:28;96490.75;;;18.91;59.32
49044;BME280;34860;48.066;14.124;2023-03-19T13:21:22;96482.22;;;19.05;59.13
49044;BME280;34860;48.066;14.124;2023-03-19T13:24:18;96485.34;;;19.13;59.26
49044;BME280;34860;48.066;14.124;2023-03-19T13:27:12;96478.22;;;19.18;59.20
49044;BME280;34860;48.066;14.124;2023-03-19T13:30:15;96477.47;;;19.23;59.22
49044;BME280;34860;48.066;14.124;2023-03-19T13:33:06;96482.88;;;19.27;59.07
49044;BME280;34860;48.066;14.124;2023-03-19T13:36:01;96479.56;;;19.28;59.31
49044;BME280;34860;48.066;14.124;2023-03-19T13:38:58;96483.38;;;19.25;59.42
49044;BME280;34860;48.066;14.124;2023-03-19T13:41:53;96483.66;;;19.27;59.48
49044;BME280;34860;48.066;14.124;2023-03-19T13:44:50;96486.53;;;19.33;59.29
49044;BME280;34860;48.066;14.124;2023-03-19T13:47:40;96491.91;;;19.36;59.41
49044;BME280;34860;48.066;14.124;2023-03-19T13:50:48;96495.00;;;19.38;59.29
49044;BME280;34860;48.066;14.124;2023-03-19T13:53:39;96496.56;;;19.39;59.59
49044;BME280;34860;48.066;14.124;2023-03-19T13:56:31;96493.72;;;19.34;59.47
49044;BME280;34860;48.066;14.124;2023-03-19T13:59:23;96486.75;;;19.29;59.68
49044;BME280;34860;48.066;14.124;2023-03-19T14:02:47;96493.84;;;19.19;59.66
49044;BME280;34860;48.066;14.124;2023-03-19T14:05:37;96486.78;;;19.03;60.01
49044;BME280;34860;48.066;14.124;2023-03-19T14:08:27;96485.91;;;18.91;60.00
49044;BME280;34860;48.066;14.124;2023-03-19T14:11:22;96490.34;;;18.77;60.09
49044;BME280;34860;48.066;14.124;2023-03-19T14:14:13;96487.16;;;18.64;60.27
49044;BME280;34860;48.066;14.124;2023-03-19T14:17:03;96492.94;;;18.55;60.28
49044;BME280;34860;48.066;14.124;2023-03-19T14:19:53;96484.38;;;18.43;60.22
49044;BME280;34860;48.066;14.124;2023-03-19T14:22:53;96480.47;;;18.35;60.36
49044;BME280;34860;48.066;14.124;2023-03-19T14:26:00;96477.03;;;18.25;60.24
49044;BME280;34860;48.066;14.124;2023-03-19T14:28:57;96477.66;;;18.14;60.31
49044;BME280;34860;48.066;14.124;2023-03-19T14:31:48;96478.28;;;18.04;60.37
49044;BME280;34860;48.066;14.124;2023-03-19T14:34:39;96482.22;;;17.91;60.15
49044;BME280;34860;48.066;14.124;2023-03-19T14:37:41;96474.09;;;17.78;60.43
49044;BME280;34860;48.066;14.124;2023-03-19T14:40:39;96476.75;;;17.67;60.86
49044;BME280;34860;48.066;14.124;2023-03-19T14:43:49;96486.28;;;17.55;60.38
49044;BME280;34860;48.066;14.124;2023-03-19T14:46:52;96481.69;;;17.37;60.39
49044;BME280;34860;48.066;14.124;2023-03-19T14:49:56;96486.03;;;17.23;60.32
49044;BME280;34860;48.066;14.124;2023-03-19T14:52:58;96490.91;;;17.08;60.38
49044;BME280;34860;48.066;14.124;2023-03-19T14:55:52;96494.03;;;16.95;60.58
49044;BME280;34860;48.066;14.124;2023-03-19T14:58:49;96486.63;;;16.82;60.65
49044;BME280;34860;48.066;14.124;2023-03-19T15:01:39;96484.69;;;16.74;60.52
49044;BME280;34860;48.066;14.124;2023-03-19T15:04:29;96489.91;;;16.66;60.45
49044;BME280;34860;48.066;14.124;2023-03-19T15:07:21;96492.34;;;16.58;60.45
49044;BME280;34860;48.066;14.124;2023-03-19T15:10:18;96490.69;;;16.51;60.39
49044;BME280;34860;48.066;14.124;2023-03-19T15:13:18;96494.94;;;16.47;60.42